sensor_id;sensor_type;location;lat;lon;timestamp;pressure;altitude;pressure_sealevel;temperature;humidity
64352;BME280;50680;52.626;-8.668;2023-08-08T00:01:14;101555.72;;;14.98;100.00
64352;BME280;50680;52.626;-8.668;2023-08-08T00:03:41;101561.00;;;14.98;100.00
64352;BME280;50680;52.626;-8.668;2023-08-08T00:06:08;101561.22;;;14.95;100.00
64352;BME280;50680;52.626;-8.668;2023-08-08T00:08:35;101552.31;;;14.96;100.00
64352;BME280;50680;52.626;-8.668;2023-08-08T00:11:02;101560.75;;;14.89;100.00
64352;BME280;50680;52.626;-8.668;2023-08-08T00:13:29;101544.81;;;14.90;100.00
64352;BME280;50680;52.626;-8.668;2023-08-08T00:15:57;101541.03;;;14.94;100.00
64352;BME280;50680;52.626;-8.668;2023-08-08T00:18:24;101539.22;;;14.95;100.00
64352;BME280;50680;52.626;-8.668;2023-08-08T00:20:50;101529.06;;;14.89;100.00
64352;BME280;50680;52.626;-8.668;2023-08-08T00:23:17;101530.06;;;15.00;100.00
64352;BME280;50680;52.626;-8.668;2023-08-08T00:25:44;101525.09;;;14.96;100.00
64352;BME280;50680;52.626;-8.668;2023-08-08T00:28:17;101521.28;;;15.00;100.00
64352;BME280;50680;52.626;-8.668;2023-08-08T00:30:44;101525.13;;;15.09;100.00
64352;BME280;50680;52.626;-8.668;2023-08-08T00:33:11;101526.53;;;15.14;100.00
64352;BME280;50680;52.626;-8.668;2023-08-08T00:35:38;101520.09;;;15.18;100.00
64352;BME280;50680;52.626;-8.668;2023-08-08T00:38:05;101523.38;;;15.22;100.00
64352;BME280;50680;52.626;-8.668;2023-08-08T00:40:32;101516.72;;;15.29;100.00
64352;BME280;50680;52.626;-8.668;2023-08-08T00:42:59;101516.44;;;15.34;100.00
64352;BME280;50680;52.626;-8.668;2023-08-08T00:45:27;101510.84;;;15.38;100.00
64352;BME280;50680;52.626;-8.668;2023-08-08T00:47:54;101523.09;;;15.39;100.00
64352;BME280;50680;52.626;-8.668;2023-08-08T00:50:21;101516.56;;;15.45;100.00
64352;BME280;50680;52.626;-8.668;2023-08-08T00:52:49;101510.03;;;15.51;100.00
64352;BME280;50680;52.626;-8.668;2023-08-08T00:55:16;101506.50;;;15.50;100.00
64352;BME280;50680;52.626;-8.668;2023-08-08T00:57:44;101495.72;;;15.40;100.00
64352;BME280;50680;52.626;-8.668;2023-08-08T01:00:11;101510.75;;;15.53;100.00
64352;BME280;50680;52.626;-8.668;2023-08-08T01:02:38;101506.75;;;15.60;100.00
64352;BME280;50680;52.626;-8.668;2023-08-08T01:05:06;101512.56;;;15.65;100.00
64352;BME280;50680;52.626;-8.668;2023-08-08T01:07:47;101512.06;;;15.73;100.00
64352;BME280;50680;52.626;-8.668;2023-08-08T01:10:17;101503.25;;;15.72;100.00
64352;BME280;50680;52.626;-8.668;2023-08-08T01:12:48;101497.44;;;15.67;100.00
64352;BME280;50680;52.626;-8.668;2023-08-08T01:15:17;101495.88;;;15.65;100.00
64352;BME280;50680;52.626;-8.668;2023-08-08T01:17:45;101476.50;;;15.51;100.00
64352;BME280;50680;52.626;-8.668;2023-08-08T01:20:14;101494.69;;;15.69;100.00
64352;BME280;50680;52.626;-8.668;2023-08-08T01:25:15;101493.84;;;15.68;100.00
64352;BME280;50680;52.626;-8.668;2023-08-08T01:27:42;101489.09;;;15.73;100.00
64352;BME280;50680;52.626;-8.668;2023-08-08T01:30:10;101483.28;;;15.68;100.00
64352;BME280;50680;52.626;-8.668;2023-08-08T01:32:37;101482.84;;;15.61;100.00
64352;BME280;50680;52.626;-8.668;2023-08-08T01:35:05;101483.47;;;15.65;100.00
64352;BME280;50680;52.626;-8.668;2023-08-08T01:37:36;101487.06;;;15.64;100.00
64352;BME280;50680;52.626;-8.668;2023-08-08T01:40:08;101480.31;;;15.60;100.00
64352;BME280;50680;52.626;-8.668;2023-08-08T01:42:37;101469.22;;;15.55;100.00
64352;BME280;50680;52.626;-8.668;2023-08-08T01:45:05;101469.50;;;15.50;100.00
64352;BME280;50680;52.626;-8.668;2023-08-08T01:47:32;101467.09;;;15.47;100.00
64352;BME280;50680;52.626;-8.668;2023-08-08T01:49:59;101467.94;;;15.48;100.00
64352;BME280;50680;52.626;-8.668;2023-08-08T01:52:26;101473.13;;;15.49;100.00
64352;BME280;50680;52.626;-8.668;2023-08-08T01:54:53;101466.03;;;15.50;100.00
64352;BME280;50680;52.626;-8.668;2023-08-08T01:57:20;101463.19;;;15.53;100.00
64352;BME280;50680;52.626;-8.668;2023-08-08T01:59:48;101458.84;;;15.52;100.00
64352;BME280;50680;52.626;-8.668;2023-08-08T02:02:15;101465.00;;;15.52;100.00
64352;BME280;50680;52.626;-8.668;2023-08-08T02:04:44;101448.91;;;15.42;100.00
64352;BME280;50680;52.626;-8.668;2023-08-08T02:07:11;101464.13;;;15.52;100.00
64352;BME280;50680;52.626;-8.668;2023-08-08T02:09:37;101463.28;;;15.51;100.00
64352;BME280;50680;52.626;-8.668;2023-08-08T02:12:04;101469.41;;;15.52;100.00
64352;BME280;50680;52.626;-8.668;2023-08-08T02:14:31;101474.69;;;15.52;100.00
64352;BME280;50680;52.626;-8.668;2023-08-08T02:16:58;101483.69;;;15.49;100.00
64352;BME280;50680;52.626;-8.668;2023-08-08T02:19:25;101480.41;;;15.46;100.00
64352;BME280;50680;52.626;-8.668;2023-08-08T02:21:52;101482.97;;;15.47;100.00
64352;BME280;50680;52.626;-8.668;2023-08-08T02:24:19;101475.75;;;15.49;100.00
64352;BME280;50680;52.626;-8.668;2023-08-08T02:26:46;101464.13;;;15.52;100.00
64352;BME280;50680;52.626;-8.668;2023-08-08T02:29:13;101461.28;;;15.55;100.00
64352;BME280;50680;52.626;-8.668;2023-08-08T02:31:41;101464.22;;;15.50;100.00
64352;BME280;50680;52.626;-8.668;2023-08-08T02:34:08;101469.00;;;15.45;100.00
64352;BME280;50680;52.626;-8.668;2023-08-08T02:36:35;101475.13;;;15.46;100.00
64352;BME280;50680;52.626;-8.668;2023-08-08T02:39:02;101470.97;;;15.41;100.00
64352;BME280;50680;52.626;-8.668;2023-08-08T02:41:29;101472.59;;;15.44;100.00
64352;BME280;50680;52.626;-8.668;2023-08-08T02:43:56;101471.50;;;15.47;100.00
64352;BME280;50680;52.626;-8.668;2023-08-08T02:46:23;101462.75;;;15.46;100.00
64352;BME280;50680;52.626;-8.668;2023-08-08T02:48:50;101463.47;;;15.48;100.00
64352;BME280;50680;52.626;-8.668;2023-08-08T02:51:17;101464.22;;;15.50;100.00
64352;BME280;50680;52.626;-8.668;2023-08-08T02:53:44;101462.56;;;15.49;100.00
64352;BME280;50680;52.626;-8.668;2023-08-08T02:56:11;101463.28;;;15.51;100.00
64352;BME280;50680;52.626;-8.668;2023-08-08T02:58:38;101452.50;;;15.54;100.00
64352;BME280;50680;52.626;-8.668;2023-08-08T03:01:05;101450.69;;;15.55;100.00
64352;BME280;50680;52.626;-8.668;2023-08-08T03:03:32;101453.34;;;15.55;100.00
64352;BME280;50680;52.626;-8.668;2023-08-08T03:06:00;101466.75;;;15.52;100.00
64352;BME280;50680;52.626;-8.668;2023-08-08T03:08:27;101467.94;;;15.48;100.00
64352;BME280;50680;52.626;-8.668;2023-08-08T03:10:54;101473.75;;;15.53;100.00
64352;BME280;50680;52.626;-8.668;2023-08-08T03:13:21;101452.81;;;15.50;100.00
64352;BME280;50680;52.626;-8.668;2023-08-08T03:15:49;101433.16;;;15.41;100.00
64352;BME280;50680;52.626;-8.668;2023-08-08T03:18:16;101455.78;;;15.45;100.00
64352;BME280;50680;52.626;-8.668;2023-08-08T03:20:43;101472.38;;;15.47;100.00
64352;BME280;50680;52.626;-8.668;2023-08-08T03:23:10;101474.69;;;15.52;100.00
64352;BME280;50680;52.626;-8.668;2023-08-08T03:25:37;101478.09;;;15.54;100.00
64352;BME280;50680;52.626;-8.668;2023-08-08T03:28:03;101464.88;;;15.54;100.00
64352;BME280;50680;52.626;-8.668;2023-08-08T03:30:30;101441.19;;;15.52;100.00
64352;BME280;50680;52.626;-8.668;2023-08-08T03:32:57;101429.03;;;15.50;100.00
64352;BME280;50680;52.626;-8.668;2023-08-08T03:35:24;101441.19;;;15.52;100.00
64352;BME280;50680;52.626;-8.668;2023-08-08T03:37:51;101440.13;;;15.55;100.00
64352;BME280;50680;52.626;-8.668;2023-08-08T03:40:18;101447.97;;;15.56;100.00
64352;BME280;50680;52.626;-8.668;2023-08-08T03:42:45;101448.69;;;15.58;100.00
64352;BME280;50680;52.626;-8.668;2023-08-08T03:45:12;101442.97;;;15.52;100.00
64352;BME280;50680;52.626;-8.668;2023-08-08T03:47:39;101426.91;;;15.55;100.00
64352;BME280;50680;52.626;-8.668;2023-08-08T03:50:07;101421.63;;;15.55;100.00
64352;BME280;50680;52.626;-8.668;2023-08-08T03:52:35;101420.25;;;15.49;100.00
64352;BME280;50680;52.626;-8.668;2023-08-08T03:55:04;101427.44;;;15.60;100.00
64352;BME280;50680;52.626;-8.668;2023-08-08T03:57:31;101425.97;;;15.56;100.00
64352;BME280;50680;52.626;-8.668;2023-08-08T03:59:58;101423.53;;;15.53;100.00
64352;BME280;50680;52.626;-8.668;2023-08-08T04:02:25;101413.81;;;15.40;100.00
64352;BME280;50680;52.626;-8.668;2023-08-08T04:04:54;101416.13;;;15.32;100.00
64352;BME280;50680;52.626;-8.668;2023-08-08T04:07:21;101423.13;;;15.33;100.00
64352;BME280;50680;52.626;-8.668;2023-08-08T04:09:48;101423.00;;;15.35;100.00
64352;BME280;50680;52.626;-8.668;2023-08-08T04:12:15;101425.22;;;15.41;100.00
64352;BME280;50680;52.626;-8.668;2023-08-08T04:14:42;101439.50;;;15.38;100.00
64352;BME280;50680;52.626;-8.668;2023-08-08T04:17:09;101421.94;;;15.37;100.00
64352;BME280;50680;52.626;-8.668;2023-08-08T04:19:36;101414.00;;;15.37;100.00
64352;BME280;50680;52.626;-8.668;2023-08-08T04:22:03;101420.25;;;15.36;100.00
64352;BME280;50680;52.626;-8.668;2023-08-08T04:24:31;101414.41;;;15.31;100.00
64352;BME280;50680;52.626;-8.668;2023-08-08T04:26:58;101404.09;;;15.28;100.00
64352;BME280;50680;52.626;-8.668;2023-08-08T04:29:24;101413.06;;;15.26;100.00
64352;BME280;50680;52.626;-8.668;2023-08-08T04:31:51;101420.88;;;15.27;100.00
64352;BME280;50680;52.626;-8.668;2023-08-08T04:34:18;101431.25;;;15.30;100.00
64352;BME280;50680;52.626;-8.668;2023-08-08T04:36:45;101421.84;;;15.26;100.00
64352;BME280;50680;52.626;-8.668;2023-08-08T04:39:12;101417.84;;;15.33;100.00
64352;BME280;50680;52.626;-8.668;2023-08-08T04:41:39;101415.09;;;15.35;100.00
64352;BME280;50680;52.626;-8.668;2023-08-08T04:44:06;101421.22;;;15.35;100.00
64352;BME280;50680;52.626;-8.668;2023-08-08T04:46:33;101425.22;;;15.41;100.00
64352;BME280;50680;52.626;-8.668;2023-08-08T04:49:00;101413.81;;;15.40;100.00
64352;BME280;50680;52.626;-8.668;2023-08-08T04:51:27;101414.13;;;15.36;100.00
64352;BME280;50680;52.626;-8.668;2023-08-08T04:53:54;101422.47;;;15.42;100.00
64352;BME280;50680;52.626;-8.668;2023-08-08T04:56:21;101412.97;;;15.40;100.00
64352;BME280;50680;52.626;-8.668;2023-08-08T04:58:48;101412.53;;;15.46;100.00
64352;BME280;50680;52.626;-8.668;2023-08-08T05:01:15;101411.25;;;15.52;100.00
64352;BME280;50680;52.626;-8.668;2023-08-08T05:03:44;101417.19;;;15.55;100.00
64352;BME280;50680;52.626;-8.668;2023-08-08T05:06:11;101413.38;;;15.59;100.00
64352;BME280;50680;52.626;-8.668;2023-08-08T05:08:38;101419.31;;;15.63;100.00
64352;BME280;50680;52.626;-8.668;2023-08-08T05:11:05;101410.63;;;15.61;100.00
64352;BME280;50680;52.626;-8.668;2023-08-08T05:13:32;101410.63;;;15.61;100.00
64352;BME280;50680;52.626;-8.668;2023-08-08T05:15:59;101414.03;;;15.63;100.00
64352;BME280;50680;52.626;-8.668;2023-08-08T05:18:26;101408.09;;;15.59;100.00
64352;BME280;50680;52.626;-8.668;2023-08-08T05:20:53;101403.22;;;15.53;100.00
64352;BME280;50680;52.626;-8.668;2023-08-08T05:23:20;101400.47;;;15.55;100.00
64352;BME280;50680;52.626;-8.668;2023-08-08T05:25:47;101399.22;;;15.48;100.00
64352;BME280;50680;52.626;-8.668;2023-08-08T05:28:14;101413.81;;;15.53;100.00
64352;BME280;50680;52.626;-8.668;2023-08-08T05:30:41;101404.72;;;15.57;100.00
64352;BME280;50680;52.626;-8.668;2023-08-08T05:33:08;101407.28;;;15.59;100.00
64352;BME280;50680;52.626;-8.668;2023-08-08T05:35:35;101410.63;;;15.61;100.00
64352;BME280;50680;52.626;-8.668;2023-08-08T05:38:02;101418.88;;;15.69;100.00
64352;BME280;50680;52.626;-8.668;2023-08-08T05:40:30;101434.13;;;15.78;100.00
64352;BME280;50680;52.626;-8.668;2023-08-08T05:42:57;101423.66;;;15.77;100.00
64352;BME280;50680;52.626;-8.668;2023-08-08T05:45:23;101438.59;;;15.78;100.00
64352;BME280;50680;52.626;-8.668;2023-08-08T05:47:50;101428.94;;;15.77;100.00
64352;BME280;50680;52.626;-8.668;2023-08-08T05:50:17;101428.75;;;15.80;100.00
64352;BME280;50680;52.626;-8.668;2023-08-08T05:52:44;101437.25;;;15.71;100.00
64352;BME280;50680;52.626;-8.668;2023-08-08T05:55:11;101439.53;;;15.77;100.00
64352;BME280;50680;52.626;-8.668;2023-08-08T05:57:38;101443.22;;;15.87;100.00
64352;BME280;50680;52.626;-8.668;2023-08-08T06:00:06;101447.53;;;15.88;100.00
64352;BME280;50680;52.626;-8.668;2023-08-08T06:02:35;101454.00;;;15.71;100.00
64352;BME280;50680;52.626;-8.668;2023-08-08T06:05:02;101459.03;;;15.74;100.00
64352;BME280;50680;52.626;-8.668;2023-08-08T06:07:29;101452.28;;;15.70;100.00
64352;BME280;50680;52.626;-8.668;2023-08-08T06:09:56;101453.56;;;15.65;100.00
64352;BME280;50680;52.626;-8.668;2023-08-08T06:12:23;101445.00;;;15.61;100.00
64352;BME280;50680;52.626;-8.668;2023-08-08T06:14:50;101452.28;;;15.70;100.00
64352;BME280;50680;52.626;-8.668;2023-08-08T06:17:17;101444.16;;;15.73;100.00
64352;BME280;50680;52.626;-8.668;2023-08-08T06:19:44;101440.25;;;15.79;100.00
64352;BME280;50680;52.626;-8.668;2023-08-08T06:22:11;101442.69;;;15.82;100.00
64352;BME280;50680;52.626;-8.668;2023-08-08T06:24:39;101436.22;;;15.86;100.00
64352;BME280;50680;52.626;-8.668;2023-08-08T06:27:06;101436.13;;;15.88;100.00
64352;BME280;50680;52.626;-8.668;2023-08-08T06:29:33;101429.91;;;15.89;100.00
64352;BME280;50680;52.626;-8.668;2023-08-08T06:32:00;101426.53;;;15.87;100.00
64352;BME280;50680;52.626;-8.668;2023-08-08T06:34:28;101422.69;;;15.91;100.00
64352;BME280;50680;52.626;-8.668;2023-08-08T06:36:55;101423.94;;;15.98;100.00
64352;BME280;50680;52.626;-8.668;2023-08-08T06:39:22;101431.34;;;16.06;100.00
64352;BME280;50680;52.626;-8.668;2023-08-08T06:41:49;101427.22;;;16.02;100.00
64352;BME280;50680;52.626;-8.668;2023-08-08T06:44:15;101421.41;;;15.96;100.00
64352;BME280;50680;52.626;-8.668;2023-08-08T06:46:42;101418.53;;;16.00;100.00
64352;BME280;50680;52.626;-8.668;2023-08-08T06:49:09;101411.25;;;16.03;100.00
64352;BME280;50680;52.626;-8.668;2023-08-08T06:51:36;101425.59;;;16.12;100.00
64352;BME280;50680;52.626;-8.668;2023-08-08T06:54:03;101433.53;;;16.12;100.00
64352;BME280;50680;52.626;-8.668;2023-08-08T06:56:30;101428.34;;;16.10;100.00
64352;BME280;50680;52.626;-8.668;2023-08-08T06:58:57;101419.66;;;16.21;100.00
64352;BME280;50680;52.626;-8.668;2023-08-08T07:01:24;101422.59;;;16.29;100.00
64352;BME280;50680;52.626;-8.668;2023-08-08T07:03:51;101447.06;;;16.57;100.00
64352;BME280;50680;52.626;-8.668;2023-08-08T07:06:18;101429.81;;;16.76;100.00
64352;BME280;50680;52.626;-8.668;2023-08-08T07:08:45;101419.44;;;16.85;100.00
64352;BME280;50680;52.626;-8.668;2023-08-08T07:11:12;101412.94;;;16.89;100.00
64352;BME280;50680;52.626;-8.668;2023-08-08T07:13:39;101415.38;;;16.80;100.00
64352;BME280;50680;52.626;-8.668;2023-08-08T07:16:06;101410.41;;;16.88;100.00
64352;BME280;50680;52.626;-8.668;2023-08-08T07:18:33;101421.66;;;17.03;100.00
64352;BME280;50680;52.626;-8.668;2023-08-08T07:21:00;101432.38;;;17.01;100.00
64352;BME280;50680;52.626;-8.668;2023-08-08T07:23:27;101434.91;;;17.03;100.00
64352;BME280;50680;52.626;-8.668;2023-08-08T07:25:55;101436.63;;;17.15;100.00
64352;BME280;50680;52.626;-8.668;2023-08-08T07:28:22;101437.34;;;17.28;100.00
64352;BME280;50680;52.626;-8.668;2023-08-08T07:30:49;101434.25;;;17.35;100.00
64352;BME280;50680;52.626;-8.668;2023-08-08T07:33:16;101435.19;;;17.34;100.00
64352;BME280;50680;52.626;-8.668;2023-08-08T07:35:43;101432.81;;;17.42;100.00
64352;BME280;50680;52.626;-8.668;2023-08-08T07:38:10;101431.63;;;17.46;100.00
64352;BME280;50680;52.626;-8.668;2023-08-08T07:40:37;101431.13;;;17.41;100.00
64352;BME280;50680;52.626;-8.668;2023-08-08T07:43:04;101421.75;;;17.48;100.00
64352;BME280;50680;52.626;-8.668;2023-08-08T07:45:31;101413.56;;;17.51;100.00
64352;BME280;50680;52.626;-8.668;2023-08-08T07:47:58;101410.28;;;17.47;100.00
64352;BME280;50680;52.626;-8.668;2023-08-08T07:50:25;101399.31;;;17.52;100.00
64352;BME280;50680;52.626;-8.668;2023-08-08T07:52:52;101408.50;;;17.48;100.00
64352;BME280;50680;52.626;-8.668;2023-08-08T07:55:19;101414.97;;;17.44;100.00
64352;BME280;50680;52.626;-8.668;2023-08-08T07:57:46;101405.13;;;17.46;100.00
64352;BME280;50680;52.626;-8.668;2023-08-08T08:00:13;101425.13;;;17.61;100.00
64352;BME280;50680;52.626;-8.668;2023-08-08T08:02:42;101435.00;;;17.59;100.00
64352;BME280;50680;52.626;-8.668;2023-08-08T08:05:09;101429.34;;;17.64;100.00
64352;BME280;50680;52.626;-8.668;2023-08-08T08:07:37;101426.69;;;17.64;100.00
64352;BME280;50680;52.626;-8.668;2023-08-08T08:10:07;101441.28;;;17.70;100.00
64352;BME280;50680;52.626;-8.668;2023-08-08T08:12:36;101437.66;;;17.82;100.00
64352;BME280;50680;52.626;-8.668;2023-08-08T08:15:04;101444.94;;;17.91;100.00
64352;BME280;50680;52.626;-8.668;2023-08-08T08:17:31;101455.53;;;18.02;100.00
64352;BME280;50680;52.626;-8.668;2023-08-08T08:19:58;101455.16;;;18.18;100.00
64352;BME280;50680;52.626;-8.668;2023-08-08T08:22:25;101462.88;;;18.33;100.00
64352;BME280;50680;52.626;-8.668;2023-08-08T08:24:52;101457.19;;;18.37;100.00
64352;BME280;50680;52.626;-8.668;2023-08-08T08:27:19;101452.22;;;18.44;100.00
64352;BME280;50680;52.626;-8.668;2023-08-08T08:29:46;101450.16;;;18.48;100.00
64352;BME280;50680;52.626;-8.668;2023-08-08T08:32:13;101444.47;;;18.52;100.00
64352;BME280;50680;52.626;-8.668;2023-08-08T08:34:40;101456.88;;;18.63;100.00
64352;BME280;50680;52.626;-8.668;2023-08-08T08:37:07;101448.31;;;18.71;100.00
64352;BME280;50680;52.626;-8.668;2023-08-08T08:39:34;101449.47;;;18.78;100.00
64352;BME280;50680;52.626;-8.668;2023-08-08T08:42:02;101442.09;;;18.82;100.00
64352;BME280;50680;52.626;-8.668;2023-08-08T08:44:32;101435.34;;;18.89;100.00
64352;BME280;50680;52.626;-8.668;2023-08-08T08:47:02;101435.91;;;18.92;100.00
64352;BME280;50680;52.626;-8.668;2023-08-08T08:49:30;101427.81;;;18.94;100.00
64352;BME280;50680;52.626;-8.668;2023-08-08T08:51:59;101424.44;;;18.92;100.00
64352;BME280;50680;52.626;-8.668;2023-08-08T08:54:32;101437.88;;;18.90;100.00
64352;BME280;50680;52.626;-8.668;2023-08-08T08:56:59;101436.78;;;18.82;100.00
64352;BME280;50680;52.626;-8.668;2023-08-08T08:59:26;101446.94;;;18.76;100.00
64352;BME280;50680;52.626;-8.668;2023-08-08T09:01:54;101442.78;;;18.63;100.00
64352;BME280;50680;52.626;-8.668;2023-08-08T09:04:22;101436.81;;;18.70;100.00
64352;BME280;50680;52.626;-8.668;2023-08-08T09:06:50;101431.72;;;18.78;100.00
64352;BME280;50680;52.626;-8.668;2023-08-08T09:09:18;101436.06;;;18.79;100.00
64352;BME280;50680;52.626;-8.668;2023-08-08T09:11:53;101441.28;;;18.70;100.00
64352;BME280;50680;52.626;-8.668;2023-08-08T09:14:25;101450.97;;;18.59;100.00
64352;BME280;50680;52.626;-8.668;2023-08-08T09:16:53;101455.00;;;18.54;100.00
64352;BME280;50680;52.626;-8.668;2023-08-08T09:19:21;101455.09;;;18.52;100.00
64352;BME280;50680;52.626;-8.668;2023-08-08T09:21:49;101454.03;;;18.55;100.00
64352;BME280;50680;52.626;-8.668;2023-08-08T09:24:17;101454.03;;;18.55;100.00
64352;BME280;50680;52.626;-8.668;2023-08-08T09:26:44;101447.50;;;18.48;100.00
64352;BME280;50680;52.626;-8.668;2023-08-08T09:29:13;101466.84;;;18.50;100.00
64352;BME280;50680;52.626;-8.668;2023-08-08T09:31:41;101465.72;;;18.52;100.00
64352;BME280;50680;52.626;-8.668;2023-08-08T09:34:08;101472.50;;;18.45;100.00
64352;BME280;50680;52.626;-8.668;2023-08-08T09:36:35;101475.53;;;18.52;100.00
64352;BME280;50680;52.626;-8.668;2023-08-08T09:39:04;101477.13;;;18.43;100.00
64352;BME280;50680;52.626;-8.668;2023-08-08T09:41:32;101472.88;;;18.40;100.00
64352;BME280;50680;52.626;-8.668;2023-08-08T09:43:59;101465.31;;;18.36;100.00
64352;BME280;50680;52.626;-8.668;2023-08-08T09:46:29;101463.25;;;18.39;100.00
64352;BME280;50680;52.626;-8.668;2023-08-08T09:48:57;101462.84;;;18.44;100.00
64352;BME280;50680;52.626;-8.668;2023-08-08T09:51:25;101465.38;;;18.46;100.00
64352;BME280;50680;52.626;-8.668;2023-08-08T09:53:53;101468.25;;;18.54;100.00
64352;BME280;50680;52.626;-8.668;2023-08-08T09:56:20;101474.66;;;18.51;100.00
64352;BME280;50680;52.626;-8.668;2023-08-08T09:58:47;101456.94;;;18.40;100.00
64352;BME280;50680;52.626;-8.668;2023-08-08T10:01:15;101449.09;;;18.50;100.00
64352;BME280;50680;52.626;-8.668;2023-08-08T10:03:42;101438.81;;;18.57;100.00
64352;BME280;50680;52.626;-8.668;2023-08-08T10:06:13;101440.69;;;18.66;100.00
64352;BME280;50680;52.626;-8.668;2023-08-08T10:08:40;101448.19;;;18.72;100.00
64352;BME280;50680;52.626;-8.668;2023-08-08T10:11:08;101461.31;;;18.85;100.00
64352;BME280;50680;52.626;-8.668;2023-08-08T10:13:36;101456.94;;;18.95;100.00
64352;BME280;50680;52.626;-8.668;2023-08-08T10:16:07;101466.06;;;19.03;100.00
64352;BME280;50680;52.626;-8.668;2023-08-08T10:18:35;101483.59;;;19.05;100.00
64352;BME280;50680;52.626;-8.668;2023-08-08T10:21:04;101489.53;;;18.97;100.00
64352;BME280;50680;52.626;-8.668;2023-08-08T10:23:38;101498.28;;;18.88;100.00
64352;BME280;50680;52.626;-8.668;2023-08-08T10:26:18;101506.25;;;18.88;100.00
64352;BME280;50680;52.626;-8.668;2023-08-08T10:28:54;101490.50;;;18.96;100.00
64352;BME280;50680;52.626;-8.668;2023-08-08T10:31:25;101493.44;;;19.14;100.00
64352;BME280;50680;52.626;-8.668;2023-08-08T10:34:05;101492.41;;;19.27;100.00
64352;BME280;50680;52.626;-8.668;2023-08-08T10:36:50;101494.16;;;19.38;100.00
64352;BME280;50680;52.626;-8.668;2023-08-08T10:39:19;101499.56;;;19.47;100.00
64352;BME280;50680;52.626;-8.668;2023-08-08T10:41:48;101508.38;;;19.48;100.00
64352;BME280;50680;52.626;-8.668;2023-08-08T10:44:25;101511.00;;;19.38;100.00
64352;BME280;50680;52.626;-8.668;2023-08-08T10:46:52;101501.22;;;19.27;100.00
64352;BME280;50680;52.626;-8.668;2023-08-08T10:49:25;101494.13;;;19.28;100.00
64352;BME280;50680;52.626;-8.668;2023-08-08T10:51:52;101486.38;;;19.25;100.00
64352;BME280;50680;52.626;-8.668;2023-08-08T10:54:22;101481.28;;;19.33;100.00
64352;BME280;50680;52.626;-8.668;2023-08-08T10:56:51;101476.47;;;19.48;100.00
64352;BME280;50680;52.626;-8.668;2023-08-08T10:59:23;101484.25;;;19.61;100.00
64352;BME280;50680;52.626;-8.668;2023-08-08T11:01:51;101482.28;;;19.63;100.00
64352;BME280;50680;52.626;-8.668;2023-08-08T11:04:21;101474.81;;;19.78;100.00
64352;BME280;50680;52.626;-8.668;2023-08-08T11:06:50;101470.75;;;20.04;100.00
64352;BME280;50680;52.626;-8.668;2023-08-08T11:09:20;101458.50;;;20.23;100.00
64352;BME280;50680;52.626;-8.668;2023-08-08T11:11:47;101441.69;;;20.32;100.00
64352;BME280;50680;52.626;-8.668;2023-08-08T11:14:19;101442.53;;;20.42;100.00
64352;BME280;50680;52.626;-8.668;2023-08-08T11:16:48;101428.94;;;20.55;100.00
64352;BME280;50680;52.626;-8.668;2023-08-08T11:19:15;101434.88;;;20.69;100.00
64352;BME280;50680;52.626;-8.668;2023-08-08T11:21:47;101450.75;;;20.90;100.00
64352;BME280;50680;52.626;-8.668;2023-08-08T11:24:15;101449.75;;;21.10;100.00
64352;BME280;50680;52.626;-8.668;2023-08-08T11:26:44;101451.13;;;21.34;100.00
64352;BME280;50680;52.626;-8.668;2023-08-08T11:29:14;101453.22;;;21.50;100.00
64352;BME280;50680;52.626;-8.668;2023-08-08T11:31:41;101460.59;;;21.66;100.00
64352;BME280;50680;52.626;-8.668;2023-08-08T11:34:08;101459.44;;;21.78;100.00
64352;BME280;50680;52.626;-8.668;2023-08-08T11:36:37;101446.09;;;22.06;100.00
64352;BME280;50680;52.626;-8.668;2023-08-08T11:39:05;101452.25;;;22.44;100.00
64352;BME280;50680;52.626;-8.668;2023-08-08T11:41:35;101446.53;;;22.57;100.00
64352;BME280;50680;52.626;-8.668;2023-08-08T11:44:03;101446.16;;;22.51;100.00
64352;BME280;50680;52.626;-8.668;2023-08-08T11:46:31;101447.97;;;22.51;100.00
64352;BME280;50680;52.626;-8.668;2023-08-08T11:49:06;101463.31;;;22.31;100.00
64352;BME280;50680;52.626;-8.668;2023-08-08T11:51:34;101458.44;;;22.16;100.00
64352;BME280;50680;52.626;-8.668;2023-08-08T11:54:03;101440.63;;;22.07;100.00
64352;BME280;50680;52.626;-8.668;2023-08-08T11:56:34;101433.38;;;21.62;100.00
64352;BME280;50680;52.626;-8.668;2023-08-08T11:59:01;101442.56;;;21.11;100.00
64352;BME280;50680;52.626;-8.668;2023-08-08T12:01:31;101430.66;;;20.56;100.00
64352;BME280;50680;52.626;-8.668;2023-08-08T12:04:03;101424.47;;;20.46;100.00
64352;BME280;50680;52.626;-8.668;2023-08-08T12:06:31;101429.09;;;20.54;100.00
64352;BME280;50680;52.626;-8.668;2023-08-08T12:08:58;101441.97;;;20.48;100.00
64352;BME280;50680;52.626;-8.668;2023-08-08T12:11:27;101437.25;;;20.62;100.00
64352;BME280;50680;52.626;-8.668;2023-08-08T12:13:59;101436.81;;;21.06;100.00
64352;BME280;50680;52.626;-8.668;2023-08-08T12:16:30;101447.88;;;21.59;100.00
64352;BME280;50680;52.626;-8.668;2023-08-08T12:19:06;101442.09;;;21.92;100.00
64352;BME280;50680;52.626;-8.668;2023-08-08T12:21:34;101437.81;;;22.27;100.00
64352;BME280;50680;52.626;-8.668;2023-08-08T12:24:01;101438.13;;;22.51;100.00
64352;BME280;50680;52.626;-8.668;2023-08-08T12:26:29;101429.28;;;22.69;100.00
64352;BME280;50680;52.626;-8.668;2023-08-08T12:28:56;101452.78;;;22.83;100.00
64352;BME280;50680;52.626;-8.668;2023-08-08T12:31:23;101437.16;;;22.70;100.00
64352;BME280;50680;52.626;-8.668;2023-08-08T12:33:50;101447.53;;;22.91;100.00
64352;BME280;50680;52.626;-8.668;2023-08-08T12:36:19;101453.72;;;22.92;100.00